Spokane, Washington
Current Conditions -  °F | °C
As of 10:53 AM on Monday 22 Dec 2014 (Local Time) from KSFF Reporting Station
Clear Clear  
Wind Chill: 39°   Ceiling: Unl
Heat Index: 42°   Visibility: 10mi
Dew Point: 30°   Wind: 5mph
Humidity: 62%   Direction: 270°W
Pressure: 30.18"   Gusts: NA
Location:  47.66°N, 117.41°W
Report Text: KSFF 221853Z 27004KT 10SM CLR 06/M01 A3018 RMK AO2 SLP228 T00561011
Loading
Personal Weather Stations






























Interactive Weather Map New forecast layout! Learn more

10-Day Weather Forecast

Advertisements
Track Severe Weather on mobile